createdAt,value
2018-08-20T00:00:49.289Z,22.24
2018-08-20T00:03:18.447Z,22.25
2018-08-20T00:05:52.726Z,22.17
2018-08-20T00:08:22.497Z,22.20
2018-08-20T00:10:56.354Z,22.17
2018-08-20T00:13:26.097Z,22.14
2018-08-20T00:15:55.753Z,22.20
2018-08-20T00:18:30.120Z,22.13
2018-08-20T00:20:59.256Z,22.10
2018-08-20T00:23:28.390Z,22.10
2018-08-20T00:25:59.123Z,22.05
2018-08-20T00:28:28.810Z,22.06
2018-08-20T00:30:57.938Z,21.89
2018-08-20T00:33:27.090Z,21.88
2018-08-20T00:35:56.229Z,21.88
2018-08-20T00:38:25.381Z,21.82
2018-08-20T00:40:54.506Z,21.83
2018-08-20T00:43:23.664Z,21.87
2018-08-20T00:45:52.797Z,21.92
2018-08-20T00:48:21.942Z,21.85
2018-08-20T00:50:51.082Z,21.76
2018-08-20T00:53:20.224Z,21.74
2018-08-20T00:55:49.362Z,21.74
2018-08-20T00:58:18.499Z,21.68
2018-08-20T01:00:48.111Z,21.65
2018-08-20T01:03:18.139Z,21.65
2018-08-20T01:05:48.246Z,21.62
2018-08-20T01:08:18.373Z,21.55
2018-08-20T01:10:48.386Z,21.58
2018-08-20T01:13:18.521Z,21.58
2018-08-20T01:15:47.657Z,21.43
2018-08-20T01:18:16.810Z,21.49
2018-08-20T01:20:45.949Z,21.44
2018-08-20T01:23:15.158Z,21.36
2018-08-20T01:25:44.304Z,21.38
2018-08-20T01:28:13.442Z,21.28
2018-08-20T01:30:42.587Z,21.22
2018-08-20T01:33:14.813Z,21.22
2018-08-20T01:35:43.957Z,21.14
2018-08-20T01:38:13.102Z,21.18
2018-08-20T01:40:42.242Z,21.22
2018-08-20T01:43:11.394Z,21.19
2018-08-20T01:45:40.535Z,21.11
2018-08-20T01:48:09.898Z,21.15
2018-08-20T01:50:39.047Z,21.11
2018-08-20T01:53:08.182Z,21.18
2018-08-20T01:55:37.674Z,21.10
2018-08-20T01:58:06.818Z,21.01
2018-08-20T02:00:36.031Z,21.04
2018-08-20T02:03:05.235Z,20.98
2018-08-20T02:05:34.374Z,20.97
2018-08-20T02:08:03.533Z,20.97
2018-08-20T02:10:32.692Z,20.96
2018-08-20T02:13:01.874Z,20.99
2018-08-20T02:15:31.018Z,21.05
2018-08-20T02:18:00.154Z,20.97
2018-08-20T02:20:29.294Z,20.96
2018-08-20T02:22:58.426Z,20.92
2018-08-20T02:25:27.566Z,20.89
2018-08-20T02:27:56.707Z,20.94
2018-08-20T02:30:25.852Z,20.92
2018-08-20T02:32:55.718Z,20.98
2018-08-20T02:35:24.866Z,20.92
2018-08-20T02:37:54.006Z,20.94
2018-08-20T02:40:23.154Z,20.91
2018-08-20T02:42:52.302Z,20.88
2018-08-20T02:45:21.451Z,20.78
2018-08-20T02:47:50.604Z,20.79
2018-08-20T02:50:19.757Z,20.74
2018-08-20T02:52:48.900Z,20.71
2018-08-20T02:55:18.049Z,20.74
2018-08-20T02:57:47.243Z,20.69
2018-08-20T03:00:16.397Z,20.69
2018-08-20T03:02:45.535Z,20.61
2018-08-20T03:05:14.688Z,20.62
2018-08-20T03:07:43.833Z,20.66
2018-08-20T03:10:13.539Z,20.58
2018-08-20T03:12:42.939Z,20.52
2018-08-20T03:15:12.482Z,20.58
2018-08-20T03:17:41.602Z,20.56
2018-08-20T03:20:10.750Z,20.56
2018-08-20T03:22:39.907Z,20.54
2018-08-20T03:25:09.547Z,20.47
2018-08-20T03:27:38.842Z,20.51
2018-08-20T03:30:09.407Z,20.48
2018-08-20T03:32:39.078Z,20.43
2018-08-20T03:35:10.030Z,20.41
2018-08-20T03:37:39.523Z,20.31
2018-08-20T03:40:11.134Z,20.27
2018-08-20T03:42:40.279Z,20.24
2018-08-20T03:45:10.198Z,20.23
2018-08-20T03:47:39.345Z,20.34
2018-08-20T03:50:11.955Z,20.30
2018-08-20T03:52:41.102Z,20.25
2018-08-20T03:55:10.260Z,20.24
2018-08-20T03:57:39.466Z,20.20
2018-08-20T04:00:10.710Z,20.20
2018-08-20T04:02:39.840Z,20.17
2018-08-20T04:05:09.123Z,20.16
2018-08-20T04:07:38.136Z,20.14
2018-08-20T04:10:07.286Z,20.18
2018-08-20T04:12:36.428Z,20.16
2018-08-20T04:15:06.910Z,20.14
2018-08-20T04:17:36.048Z,20.16
2018-08-20T04:20:07.064Z,20.13
2018-08-20T04:22:36.206Z,20.04
2018-08-20T04:25:05.454Z,20.02
2018-08-20T04:27:34.650Z,20.05
2018-08-20T04:30:03.819Z,19.98
2018-08-20T04:32:33.470Z,19.99
2018-08-20T04:35:02.637Z,19.92
2018-08-20T04:37:31.794Z,19.96
2018-08-20T04:40:00.930Z,19.99
2018-08-20T04:42:30.080Z,19.88
2018-08-20T04:44:59.222Z,19.88
2018-08-20T04:47:28.371Z,19.84
2018-08-20T04:49:57.563Z,19.90
2018-08-20T04:52:26.844Z,19.97
2018-08-20T04:54:55.983Z,19.96
2018-08-20T04:57:25.146Z,19.91
2018-08-20T04:59:54.282Z,19.92
2018-08-20T05:02:23.435Z,19.90
2018-08-20T05:04:52.575Z,19.95
2018-08-20T05:07:21.730Z,19.88
2018-08-20T05:09:50.872Z,20.00
2018-08-20T05:12:20.028Z,20.03
2018-08-20T05:14:49.163Z,19.96
2018-08-20T05:17:18.355Z,20.00
2018-08-20T05:19:47.495Z,20.02
2018-08-20T05:22:16.647Z,20.15
2018-08-20T05:24:45.795Z,20.11
2018-08-20T05:27:14.947Z,20.11
2018-08-20T05:29:44.083Z,20.16
2018-08-20T05:32:13.234Z,20.22
2018-08-20T05:34:42.371Z,20.22
2018-08-20T05:37:11.527Z,20.32
2018-08-20T05:39:40.667Z,20.26
2018-08-20T05:42:09.815Z,20.33
2018-08-20T05:44:39.003Z,20.44
2018-08-20T05:47:08.111Z,20.44
2018-08-20T05:49:37.243Z,20.49
2018-08-20T05:52:06.651Z,20.56
2018-08-20T05:54:36.136Z,20.60
2018-08-20T05:57:06.618Z,20.69
2018-08-20T05:59:36.355Z,20.74
2018-08-20T06:02:06.495Z,20.83
2018-08-20T06:04:36.654Z,20.92
2018-08-20T06:07:07.946Z,21.03
2018-08-20T06:09:37.083Z,21.11
2018-08-20T06:12:06.253Z,21.17
2018-08-20T06:14:35.375Z,21.24
2018-08-20T06:17:04.546Z,21.32
2018-08-20T06:19:33.690Z,21.38
2018-08-20T06:22:02.847Z,21.45
2018-08-20T06:24:31.982Z,21.51
2018-08-20T06:27:01.139Z,21.60
2018-08-20T06:29:30.294Z,21.69
2018-08-20T06:31:59.447Z,21.76
2018-08-20T06:34:28.590Z,21.85
2018-08-20T06:36:57.756Z,21.93
2018-08-20T06:39:26.889Z,22.02
2018-08-20T06:41:56.034Z,22.13
2018-08-20T06:44:25.185Z,22.22
2018-08-20T06:46:54.340Z,22.34
2018-08-20T06:49:23.462Z,22.47
2018-08-20T06:51:52.615Z,22.54
2018-08-20T06:54:21.901Z,22.60
2018-08-20T06:56:51.026Z,22.72
2018-08-20T06:59:20.174Z,22.81
2018-08-20T07:01:49.329Z,22.90
2018-08-20T07:04:18.482Z,22.98
2018-08-20T07:06:47.619Z,23.11
2018-08-20T07:09:16.779Z,23.27
2018-08-20T07:11:45.980Z,23.33
2018-08-20T07:14:15.091Z,23.39
2018-08-20T07:16:44.263Z,23.45
2018-08-20T07:19:13.419Z,23.54
2018-08-20T07:21:42.550Z,23.63
2018-08-20T07:24:12.678Z,23.70
2018-08-20T07:26:42.790Z,23.76
2018-08-20T07:29:12.955Z,23.84
2018-08-20T07:31:43.058Z,23.96
2018-08-20T07:34:12.210Z,24.07
2018-08-20T07:36:41.371Z,24.10
2018-08-20T07:39:10.543Z,24.25
2018-08-20T07:41:39.690Z,24.29
2018-08-20T07:44:08.838Z,24.30
2018-08-20T07:46:37.970Z,24.46
2018-08-20T07:49:13.219Z,24.55
2018-08-20T07:51:43.598Z,24.65
2018-08-20T07:54:14.027Z,24.68
2018-08-20T07:56:44.023Z,24.78
2018-08-20T07:59:13.383Z,24.82
2018-08-20T08:01:42.599Z,24.90
2018-08-20T08:04:11.747Z,24.93
2018-08-20T08:06:40.892Z,25.03
2018-08-20T08:09:10.910Z,25.09
2018-08-20T08:11:43.099Z,25.21
2018-08-20T08:14:12.260Z,25.33
2018-08-20T08:16:41.388Z,25.40
2018-08-20T08:19:10.558Z,25.39
2018-08-20T08:21:39.698Z,25.46
2018-08-20T08:24:08.866Z,25.53
2018-08-20T08:26:38.130Z,25.64
2018-08-20T08:29:07.302Z,25.67
2018-08-20T08:31:36.450Z,25.86
2018-08-20T08:34:05.603Z,25.78
2018-08-20T08:36:34.750Z,25.68
2018-08-20T08:39:04.448Z,25.76
2018-08-20T08:41:33.595Z,25.74
2018-08-20T08:44:02.734Z,25.90
2018-08-20T08:46:31.874Z,25.99
2018-08-20T08:49:01.053Z,26.09
2018-08-20T08:51:30.194Z,26.27
2018-08-20T08:53:59.387Z,26.39
2018-08-20T08:56:28.531Z,26.19
2018-08-20T08:58:57.691Z,26.17
2018-08-20T09:01:26.832Z,26.23
2018-08-20T09:03:55.987Z,26.37
2018-08-20T09:06:25.131Z,26.49
2018-08-20T09:08:54.319Z,26.62
2018-08-20T09:11:23.458Z,26.71
2018-08-20T09:13:52.615Z,26.83
2018-08-20T09:16:21.810Z,26.85
2018-08-20T09:18:50.957Z,26.99
2018-08-20T09:21:20.395Z,27.12
2018-08-20T09:23:49.542Z,27.14
2018-08-20T09:26:18.934Z,27.25
2018-08-20T09:28:48.094Z,27.18
2018-08-20T09:31:18.102Z,27.21
2018-08-20T09:33:48.082Z,27.19
2018-08-20T09:36:18.158Z,27.17
2018-08-20T09:38:47.338Z,27.03
2018-08-20T09:41:16.486Z,27.13
2018-08-20T09:43:45.675Z,27.26
2018-08-20T09:46:14.774Z,27.34
2018-08-20T09:48:43.974Z,27.33
2018-08-20T09:51:13.134Z,27.50
2018-08-20T09:53:42.278Z,27.62
2018-08-20T09:56:11.435Z,27.69
2018-08-20T09:58:40.570Z,27.74
2018-08-20T10:01:09.722Z,27.80
2018-08-20T10:03:42.946Z,27.94
2018-08-20T10:06:12.178Z,28.02
2018-08-20T10:08:41.337Z,28.07
2018-08-20T10:11:11.123Z,28.02
2018-08-20T10:13:40.267Z,27.99
2018-08-20T10:16:09.622Z,28.06
2018-08-20T10:18:39.214Z,27.94
2018-08-20T10:21:08.545Z,28.01
2018-08-20T10:23:37.762Z,28.08
2018-08-20T10:26:07.586Z,28.07
2018-08-20T10:28:36.714Z,28.06
2018-08-20T10:31:06.122Z,28.05
2018-08-20T10:33:35.330Z,28.11
2018-08-20T10:36:04.490Z,28.28
2018-08-20T10:38:33.642Z,28.42
2018-08-20T10:41:02.794Z,28.34
2018-08-20T10:43:31.936Z,28.44
2018-08-20T10:46:06.398Z,28.47
2018-08-20T10:48:35.538Z,28.44
2018-08-20T10:51:04.771Z,28.44
2018-08-20T10:53:33.910Z,28.41
2018-08-20T10:56:03.063Z,28.43
2018-08-20T10:58:32.203Z,28.54
2018-08-20T11:01:01.351Z,28.45
2018-08-20T11:03:30.664Z,28.43
2018-08-20T11:05:59.806Z,28.46
2018-08-20T11:08:28.947Z,28.32
2018-08-20T11:10:58.692Z,28.22
2018-08-20T11:13:27.763Z,28.39
2018-08-20T11:15:56.918Z,28.32
2018-08-20T11:18:26.117Z,28.32
2018-08-20T11:20:55.247Z,28.46
2018-08-20T11:23:24.390Z,28.51
2018-08-20T11:25:54.219Z,28.55
2018-08-20T11:28:23.370Z,28.58
2018-08-20T11:30:53.511Z,28.72
2018-08-20T11:33:23.758Z,28.82
2018-08-20T11:35:53.753Z,28.93
2018-08-20T11:38:22.882Z,29.01
2018-08-20T11:40:52.018Z,29.05
2018-08-20T11:43:21.241Z,29.06
2018-08-20T11:45:50.315Z,29.21
2018-08-20T11:48:19.455Z,29.15
2018-08-20T11:50:48.607Z,29.14
2018-08-20T11:53:17.820Z,29.10
2018-08-20T11:55:46.887Z,29.12
2018-08-20T11:58:16.037Z,29.19
2018-08-20T12:00:45.179Z,29.18
2018-08-20T12:03:14.357Z,29.30
2018-08-20T12:05:43.499Z,29.34
2018-08-20T12:08:12.639Z,29.45
2018-08-20T12:10:41.775Z,29.46
2018-08-20T12:13:10.923Z,29.45
2018-08-20T12:15:40.059Z,29.44
2018-08-20T12:18:09.211Z,29.47
2018-08-20T12:20:38.402Z,29.49
2018-08-20T12:23:07.612Z,29.56
2018-08-20T12:25:36.943Z,29.61
2018-08-20T12:28:06.104Z,29.60
2018-08-20T12:30:35.347Z,29.64
2018-08-20T12:33:04.504Z,29.72
2018-08-20T12:35:33.651Z,29.80
2018-08-20T12:38:02.806Z,29.80
2018-08-20T12:40:32.447Z,29.80
2018-08-20T12:43:01.530Z,29.87
2018-08-20T12:45:30.665Z,30.00
2018-08-20T12:47:59.810Z,29.93
2018-08-20T12:50:28.958Z,29.96
2018-08-20T12:52:58.361Z,30.02
2018-08-20T12:55:27.459Z,29.87
2018-08-20T12:57:56.603Z,29.34
2018-08-20T13:00:25.788Z,29.62
2018-08-20T13:02:54.899Z,29.80
2018-08-20T13:05:24.040Z,29.78
2018-08-20T13:07:53.194Z,29.85
2018-08-20T13:10:22.335Z,29.86
2018-08-20T13:12:51.488Z,29.77
2018-08-20T13:15:20.635Z,29.69
2018-08-20T13:17:49.786Z,29.75
2018-08-20T13:20:18.926Z,29.63
2018-08-20T13:22:48.062Z,29.67
2018-08-20T13:25:17.202Z,29.77
2018-08-20T13:27:47.176Z,29.78
2018-08-20T13:30:16.314Z,29.82
2018-08-20T13:32:45.466Z,29.95
2018-08-20T13:35:14.654Z,29.84
2018-08-20T13:37:44.823Z,29.79
2018-08-20T13:40:14.007Z,29.87
2018-08-20T13:42:44.070Z,29.97
2018-08-20T13:45:15.229Z,30.10
2018-08-20T13:47:44.370Z,30.09
2018-08-20T13:50:14.392Z,30.04
2018-08-20T13:52:45.927Z,30.01
2018-08-20T13:55:15.083Z,29.76
2018-08-20T13:57:46.070Z,29.77
2018-08-20T14:00:16.887Z,29.72
2018-08-20T14:02:46.046Z,29.74
2018-08-20T14:05:16.324Z,29.76
2018-08-20T14:07:46.078Z,29.85
2018-08-20T14:10:15.229Z,29.62
2018-08-20T14:12:44.531Z,29.64
2018-08-20T14:15:14.325Z,29.65
2018-08-20T14:17:44.075Z,29.51
2018-08-20T14:20:15.290Z,29.52
2018-08-20T14:22:45.210Z,29.49
2018-08-20T14:25:14.424Z,29.38
2018-08-20T14:27:43.527Z,29.40
2018-08-20T14:30:16.390Z,29.44
2018-08-20T14:32:45.993Z,29.43
2018-08-20T14:35:17.994Z,29.38
2018-08-20T14:37:47.158Z,29.40
2018-08-20T14:40:17.987Z,29.43
2018-08-20T14:42:47.135Z,29.32
2018-08-20T14:45:17.010Z,29.27
2018-08-20T14:47:46.506Z,29.27
2018-08-20T14:50:17.334Z,29.39
2018-08-20T14:52:46.479Z,29.40
2018-08-20T14:55:15.627Z,29.24
2018-08-20T14:57:44.777Z,29.21
2018-08-20T15:00:14.858Z,29.30
2018-08-20T15:02:44.003Z,29.19
2018-08-20T15:05:13.163Z,29.20
2018-08-20T15:07:42.302Z,29.24
2018-08-20T15:10:11.484Z,29.27
2018-08-20T15:12:40.626Z,29.20
2018-08-20T15:15:09.929Z,29.18
2018-08-20T15:17:39.031Z,29.23
2018-08-20T15:20:08.775Z,29.18
2018-08-20T15:22:38.342Z,29.21
2018-08-20T15:25:14.193Z,29.10
2018-08-20T15:27:43.333Z,29.06
2018-08-20T15:30:12.491Z,29.06
2018-08-20T15:32:41.695Z,28.96
2018-08-20T15:35:10.784Z,29.04
2018-08-20T15:37:39.923Z,28.81
2018-08-20T15:40:09.078Z,28.91
2018-08-20T15:42:38.270Z,29.00
2018-08-20T15:45:07.415Z,28.89
2018-08-20T15:47:36.566Z,28.89
2018-08-20T15:50:05.835Z,28.77
2018-08-20T15:52:35.038Z,28.76
2018-08-20T15:55:04.590Z,28.55
2018-08-20T15:57:33.732Z,28.61
2018-08-20T16:00:02.967Z,28.60
2018-08-20T16:02:32.100Z,28.62
2018-08-20T16:05:01.250Z,28.60
2018-08-20T16:07:30.394Z,28.62
2018-08-20T16:09:59.542Z,28.60
2018-08-20T16:12:28.686Z,28.45
2018-08-20T16:14:57.856Z,28.37
2018-08-20T16:17:26.987Z,28.44
2018-08-20T16:19:56.150Z,28.31
2018-08-20T16:22:25.283Z,28.37
2018-08-20T16:24:54.434Z,28.34
2018-08-20T16:27:23.578Z,28.29
2018-08-20T16:29:53.258Z,28.26
2018-08-20T16:32:23.314Z,28.32
2018-08-20T16:34:53.450Z,28.36
2018-08-20T16:37:23.684Z,28.26
2018-08-20T16:39:53.691Z,28.25
2018-08-20T16:42:23.683Z,28.22
2018-08-20T16:44:53.821Z,28.12
2018-08-20T16:47:23.927Z,28.11
2018-08-20T16:49:54.061Z,27.98
2018-08-20T16:52:24.066Z,27.94
2018-08-20T16:54:54.194Z,28.00
2018-08-20T16:57:24.311Z,28.02
2018-08-20T16:59:54.358Z,27.98
2018-08-20T17:02:28.386Z,28.05
2018-08-20T17:04:57.596Z,28.01
2018-08-20T17:07:33.102Z,27.92
2018-08-20T17:10:02.254Z,27.90
2018-08-20T17:12:31.396Z,27.89
2018-08-20T17:15:00.611Z,27.86
2018-08-20T17:17:29.722Z,27.87
2018-08-20T17:19:58.864Z,27.85
2018-08-20T17:22:28.011Z,27.86
2018-08-20T17:24:57.347Z,27.82
2018-08-20T17:27:26.512Z,27.81
2018-08-20T17:29:56.637Z,27.76
2018-08-20T17:32:25.804Z,27.69
2018-08-20T17:34:55.691Z,27.71
2018-08-20T17:37:25.815Z,27.70
2018-08-20T17:40:03.939Z,27.69
2018-08-20T17:42:33.682Z,27.57
2018-08-20T17:45:03.371Z,27.46
2018-08-20T17:47:32.994Z,27.49
2018-08-20T17:50:02.298Z,27.52
2018-08-20T17:52:37.022Z,27.49
2018-08-20T17:55:06.487Z,27.51
2018-08-20T17:57:35.598Z,27.38
2018-08-20T18:00:26.437Z,27.38
2018-08-20T18:02:56.818Z,27.33
2018-08-20T18:05:26.880Z,27.34
2018-08-20T18:07:58.095Z,27.32
2018-08-20T18:10:27.222Z,27.31
2018-08-20T18:12:57.427Z,27.28
2018-08-20T18:15:27.307Z,27.22
2018-08-20T18:17:57.358Z,27.20
2018-08-20T18:20:29.547Z,27.17
2018-08-20T18:22:58.702Z,27.13
2018-08-20T18:25:32.088Z,27.09
2018-08-20T18:28:01.238Z,27.05
2018-08-20T18:30:30.374Z,27.01
2018-08-20T18:32:59.521Z,26.97
2018-08-20T18:35:32.743Z,26.93
2018-08-20T18:38:03.092Z,26.87
2018-08-20T18:40:32.335Z,26.81
2018-08-20T18:43:01.479Z,26.78
2018-08-20T18:45:30.614Z,26.74
2018-08-20T18:47:59.772Z,26.70
2018-08-20T18:50:29.431Z,26.65
2018-08-20T18:52:59.419Z,26.62
2018-08-20T18:55:29.535Z,26.59
2018-08-20T18:57:59.663Z,26.53
2018-08-20T19:00:29.770Z,26.49
2018-08-20T19:03:00.758Z,26.43
2018-08-20T19:05:44.191Z,26.39
2018-08-20T19:08:18.443Z,26.36
2018-08-20T19:10:49.214Z,26.29
2018-08-20T19:13:18.462Z,26.27
2018-08-20T19:15:50.782Z,26.25
2018-08-20T19:18:22.025Z,26.20
2018-08-20T19:20:51.164Z,26.15
2018-08-20T19:23:20.347Z,26.10
2018-08-20T19:25:49.483Z,26.06
2018-08-20T19:28:22.649Z,26.03
2018-08-20T19:30:53.034Z,26.00
2018-08-20T19:33:25.543Z,25.90
2018-08-20T19:35:55.258Z,25.85
2018-08-20T19:38:24.399Z,25.76
2018-08-20T19:41:02.435Z,25.73
2018-08-20T19:43:37.135Z,25.66
2018-08-20T19:46:06.930Z,25.58
2018-08-20T19:48:36.136Z,25.57
2018-08-20T19:51:07.430Z,25.53
2018-08-20T19:53:36.587Z,25.46
2018-08-20T19:56:10.746Z,25.41
2018-08-20T19:58:42.729Z,25.42
2018-08-20T20:01:15.215Z,25.35
2018-08-20T20:03:46.562Z,25.25
2018-08-20T20:06:16.086Z,25.21
2018-08-20T20:08:45.349Z,25.14
2018-08-20T20:11:21.791Z,25.12
2018-08-20T20:13:53.266Z,25.05
2018-08-20T20:16:22.719Z,25.07
2018-08-20T20:18:52.277Z,25.03
2018-08-20T20:21:22.185Z,25.02
2018-08-20T20:23:51.378Z,25.01
2018-08-20T20:26:20.478Z,24.99
2018-08-20T20:28:49.631Z,24.97
2018-08-20T20:31:18.773Z,24.94
2018-08-20T20:33:47.922Z,24.93
2018-08-20T20:36:22.078Z,24.92
2018-08-20T20:38:51.247Z,24.87
2018-08-20T20:41:20.375Z,24.88
2018-08-20T20:43:49.533Z,24.86
2018-08-20T20:46:18.666Z,24.84
2018-08-20T20:48:47.820Z,24.77
2018-08-20T20:51:17.095Z,24.72
2018-08-20T20:53:46.248Z,24.66
2018-08-20T20:56:15.390Z,24.55
2018-08-20T20:58:44.540Z,24.49
2018-08-20T21:01:14.289Z,24.38
2018-08-20T21:03:43.414Z,24.30
2018-08-20T21:06:12.559Z,24.20
2018-08-20T21:08:47.294Z,24.18
2018-08-20T21:11:17.647Z,24.10
2018-08-20T21:13:47.126Z,24.14
2018-08-20T21:16:17.737Z,24.09
2018-08-20T21:18:48.799Z,24.05
2018-08-20T21:21:18.702Z,24.06
2018-08-20T21:23:47.934Z,24.03
2018-08-20T21:26:17.111Z,24.03
2018-08-20T21:28:49.384Z,24.01
2018-08-20T21:31:19.697Z,23.96
2018-08-20T21:33:52.706Z,23.95
2018-08-20T21:36:21.852Z,23.92
2018-08-20T21:38:50.996Z,23.87
2018-08-20T21:41:27.043Z,23.90
2018-08-20T21:43:56.190Z,23.85
2018-08-20T21:46:25.338Z,23.85
2018-08-20T21:48:54.485Z,23.85
2018-08-20T21:51:27.937Z,23.77
2018-08-20T21:53:57.155Z,23.69
2018-08-20T21:56:36.350Z,23.64
2018-08-20T21:59:05.547Z,23.57
2018-08-20T22:01:34.703Z,23.64
2018-08-20T22:04:07.931Z,23.62
2018-08-20T22:06:37.107Z,23.60
2018-08-20T22:09:06.895Z,23.61
2018-08-20T22:11:36.050Z,23.54
2018-08-20T22:14:05.196Z,23.54
2018-08-20T22:16:34.335Z,23.52
2018-08-20T22:19:03.552Z,23.50
2018-08-20T22:21:32.710Z,23.48
2018-08-20T22:24:03.346Z,23.48
2018-08-20T22:26:32.527Z,23.38
2018-08-20T22:29:01.662Z,23.22
2018-08-20T22:31:30.810Z,23.11
2018-08-20T22:34:06.302Z,23.04
2018-08-20T22:36:35.470Z,22.81
2018-08-20T22:39:05.826Z,22.78
2018-08-20T22:41:34.978Z,22.70
2018-08-20T22:44:04.119Z,22.75
2018-08-20T22:46:33.266Z,22.80
2018-08-20T22:49:02.403Z,22.76
2018-08-20T22:51:31.558Z,22.73
2018-08-20T22:54:01.837Z,22.68
2018-08-20T22:56:34.114Z,22.70
2018-08-20T22:59:09.242Z,22.75
2018-08-20T23:01:38.415Z,22.73
2018-08-20T23:04:08.047Z,22.79
2018-08-20T23:06:37.206Z,22.78
2018-08-20T23:09:26.414Z,22.73
2018-08-20T23:11:55.806Z,22.68
2018-08-20T23:14:24.942Z,22.69
2018-08-20T23:16:54.102Z,22.72
2018-08-20T23:19:23.243Z,22.73
2018-08-20T23:21:54.746Z,22.74
2018-08-20T23:24:23.898Z,22.73
2018-08-20T23:26:53.098Z,22.70
2018-08-20T23:29:22.242Z,22.72
2018-08-20T23:31:51.401Z,22.68
2018-08-20T23:34:20.535Z,22.71
2018-08-20T23:36:49.690Z,22.71
2018-08-20T23:39:18.831Z,22.68
2018-08-20T23:41:48.009Z,22.72
2018-08-20T23:44:17.844Z,22.66
2018-08-20T23:46:48.386Z,22.62
2018-08-20T23:49:18.867Z,22.71
2018-08-20T23:51:48.803Z,22.69
2018-08-20T23:54:18.884Z,22.69
2018-08-20T23:56:49.031Z,22.70
2018-08-20T23:59:19.029Z,22.67
